createdAt,value
2022-12-31T00:01:49.605Z,0.40
2022-12-31T00:04:16.286Z,0.20
2022-12-31T00:06:42.932Z,0.60
2022-12-31T00:09:10.630Z,0.38
2022-12-31T00:11:37.775Z,0.30
2022-12-31T00:14:05.643Z,0.30
2022-12-31T00:16:36.666Z,0.25
2022-12-31T00:19:06.651Z,0.30
2022-12-31T00:21:34.100Z,0.32
2022-12-31T00:24:01.809Z,0.32
2022-12-31T00:26:30.335Z,0.30
2022-12-31T00:28:58.208Z,0.28
2022-12-31T00:31:29.943Z,0.20
2022-12-31T00:33:57.381Z,0.20
2022-12-31T00:36:27.754Z,0.32
2022-12-31T00:38:56.248Z,0.20
2022-12-31T00:41:23.127Z,0.30
2022-12-31T00:43:50.383Z,0.22
2022-12-31T00:46:17.726Z,0.60
2022-12-31T00:48:44.677Z,0.20
2022-12-31T00:51:14.146Z,0.10
2022-12-31T00:53:41.352Z,0.30
2022-12-31T00:56:14.858Z,0.28
2022-12-31T00:58:41.948Z,0.30
2022-12-31T01:01:29.789Z,0.40
2022-12-31T01:04:02.148Z,0.30
2022-12-31T01:06:28.731Z,0.20
2022-12-31T01:08:55.842Z,0.30
2022-12-31T01:11:23.585Z,0.30
2022-12-31T01:13:58.572Z,0.17
2022-12-31T01:16:37.414Z,0.17
2022-12-31T01:19:07.259Z,0.20
2022-12-31T01:21:35.214Z,0.17
2022-12-31T01:24:02.162Z,0.10
2022-12-31T01:26:29.238Z,0.10
2022-12-31T01:28:56.301Z,0.40
2022-12-31T01:31:23.766Z,0.20
2022-12-31T01:33:51.373Z,0.10
2022-12-31T01:36:26.294Z,0.40
2022-12-31T01:38:54.513Z,85.70
2022-12-31T01:41:24.267Z,49.35
2022-12-31T01:43:56.164Z,45.80
2022-12-31T01:46:47.508Z,48.53
2022-12-31T01:49:25.864Z,47.78
2022-12-31T01:52:15.230Z,41.35
2022-12-31T01:54:47.029Z,35.90
2022-12-31T01:57:14.630Z,31.92
2022-12-31T01:59:43.410Z,29.60
2022-12-31T02:02:11.594Z,26.67
2022-12-31T02:04:38.224Z,25.00
2022-12-31T02:07:09.152Z,22.52
2022-12-31T02:09:40.476Z,20.55
2022-12-31T02:12:07.890Z,18.08
2022-12-31T02:14:38.021Z,15.57
2022-12-31T02:17:24.118Z,15.73
2022-12-31T02:20:12.888Z,14.00
2022-12-31T02:23:08.398Z,12.25
2022-12-31T02:25:50.576Z,10.60
2022-12-31T02:28:49.048Z,10.40
2022-12-31T02:31:18.913Z,9.00
2022-12-31T02:33:59.006Z,8.45
2022-12-31T02:36:29.719Z,7.75
2022-12-31T02:38:57.590Z,6.80
2022-12-31T02:41:42.616Z,7.28
2022-12-31T02:44:21.722Z,5.97
2022-12-31T02:47:09.385Z,6.00
2022-12-31T02:50:03.691Z,5.38
2022-12-31T02:52:54.235Z,4.70
2022-12-31T02:55:39.254Z,4.30
2022-12-31T02:58:21.734Z,3.70
2022-12-31T03:01:13.037Z,3.83
2022-12-31T03:03:39.931Z,3.38
2022-12-31T03:06:08.051Z,3.20
2022-12-31T03:08:54.632Z,2.85
2022-12-31T03:11:40.179Z,2.80
2022-12-31T03:14:06.800Z,2.72
2022-12-31T03:16:34.847Z,2.53
2022-12-31T03:19:20.445Z,2.10
2022-12-31T03:22:05.723Z,1.95
2022-12-31T03:27:17.434Z,2.17
2022-12-31T03:29:47.378Z,2.00
2022-12-31T03:32:14.501Z,1.63
2022-12-31T03:34:41.025Z,1.60
2022-12-31T03:37:07.566Z,1.38
2022-12-31T03:39:34.274Z,1.33
2022-12-31T03:42:00.808Z,1.45
2022-12-31T03:44:27.466Z,1.25
2022-12-31T03:46:54.611Z,1.10
2022-12-31T03:49:21.160Z,1.13
2022-12-31T03:51:47.725Z,1.30
2022-12-31T03:54:15.181Z,1.10
2022-12-31T03:56:41.722Z,1.05
2022-12-31T03:59:08.254Z,0.70
2022-12-31T04:01:35.042Z,1.23
2022-12-31T04:04:01.610Z,1.00
2022-12-31T04:06:28.219Z,1.00
2022-12-31T04:08:54.914Z,0.88
2022-12-31T04:11:21.542Z,0.90
2022-12-31T04:13:48.128Z,0.90
2022-12-31T04:16:15.383Z,0.90
2022-12-31T04:18:41.965Z,0.90
2022-12-31T04:21:08.559Z,0.90
2022-12-31T04:23:35.221Z,0.80
2022-12-31T04:26:01.892Z,0.77
2022-12-31T04:28:28.428Z,0.70
2022-12-31T04:30:55.090Z,0.80
2022-12-31T04:33:21.953Z,0.80
2022-12-31T04:35:48.554Z,0.57
2022-12-31T04:38:15.298Z,0.70
2022-12-31T04:41:01.866Z,0.80
2022-12-31T04:43:28.472Z,0.68
2022-12-31T04:45:55.019Z,0.80
2022-12-31T04:48:22.028Z,0.50
2022-12-31T04:50:48.629Z,0.40
2022-12-31T04:53:15.271Z,0.68
2022-12-31T04:55:41.831Z,0.65
2022-12-31T04:58:08.426Z,0.70
2022-12-31T05:00:34.953Z,0.47
2022-12-31T05:03:01.793Z,0.60
2022-12-31T05:05:28.361Z,0.60
2022-12-31T05:07:54.903Z,0.88
2022-12-31T05:10:21.410Z,0.57
2022-12-31T05:12:48.067Z,0.60
2022-12-31T05:15:14.616Z,0.70
2022-12-31T05:17:41.172Z,0.60
2022-12-31T05:20:08.127Z,0.52
2022-12-31T05:22:34.854Z,0.60
2022-12-31T05:25:01.535Z,0.57
2022-12-31T05:27:31.525Z,0.60
2022-12-31T05:29:58.489Z,0.43
2022-12-31T05:32:25.268Z,0.45
2022-12-31T05:34:53.574Z,0.50
2022-12-31T05:37:20.168Z,0.50
2022-12-31T05:39:46.695Z,0.50
2022-12-31T05:42:14.544Z,0.45
2022-12-31T05:44:41.048Z,0.70
2022-12-31T05:47:07.654Z,0.40
2022-12-31T05:49:34.633Z,0.45
2022-12-31T05:52:01.228Z,0.60
2022-12-31T05:54:28.981Z,0.50
2022-12-31T05:56:55.989Z,0.50
2022-12-31T05:59:22.535Z,0.43
2022-12-31T06:01:49.149Z,0.35
2022-12-31T06:04:15.827Z,0.30
2022-12-31T06:06:42.394Z,0.40
2022-12-31T06:09:08.943Z,0.50
2022-12-31T06:11:37.411Z,0.45
2022-12-31T06:14:04.563Z,0.55
2022-12-31T06:16:31.147Z,0.47
2022-12-31T06:19:00.277Z,0.40
2022-12-31T06:21:28.893Z,0.40
2022-12-31T06:23:55.650Z,0.30
2022-12-31T06:26:22.770Z,0.57
2022-12-31T06:28:49.275Z,0.45
2022-12-31T06:31:16.121Z,0.28
2022-12-31T06:33:43.006Z,0.30
2022-12-31T06:36:14.330Z,0.20
2022-12-31T06:38:41.506Z,0.70
2022-12-31T06:41:12.490Z,0.70
2022-12-31T06:43:39.590Z,0.43
2022-12-31T06:46:10.076Z,0.40
2022-12-31T06:48:36.954Z,0.47
2022-12-31T06:51:15.004Z,0.30
2022-12-31T06:53:44.528Z,0.52
2022-12-31T06:56:16.976Z,0.68
2022-12-31T06:58:43.929Z,0.50
2022-12-31T07:01:25.401Z,0.40
2022-12-31T07:04:18.403Z,0.43
2022-12-31T07:07:12.743Z,0.35
2022-12-31T07:09:45.088Z,0.40
2022-12-31T07:12:22.417Z,0.60
2022-12-31T07:14:59.669Z,0.50
2022-12-31T07:17:42.721Z,0.57
2022-12-31T07:20:12.484Z,0.43
2022-12-31T07:22:39.367Z,0.47
2022-12-31T07:25:06.840Z,0.50
2022-12-31T07:27:54.715Z,0.40
2022-12-31T07:30:24.205Z,0.50
2022-12-31T07:33:12.723Z,0.52
2022-12-31T07:35:57.412Z,0.40
2022-12-31T07:38:42.615Z,0.30
2022-12-31T07:41:41.300Z,0.50
2022-12-31T07:44:22.881Z,0.55
2022-12-31T07:46:49.506Z,0.60
2022-12-31T07:49:16.371Z,0.55
2022-12-31T07:51:43.266Z,0.70
2022-12-31T07:54:13.910Z,0.40
2022-12-31T07:56:41.820Z,0.50
2022-12-31T07:59:29.824Z,0.47
2022-12-31T08:02:00.031Z,0.65
2022-12-31T08:04:37.660Z,0.45
2022-12-31T08:07:17.118Z,0.63
2022-12-31T08:09:49.100Z,0.30
2022-12-31T08:12:15.750Z,0.50
2022-12-31T08:14:45.188Z,0.40
2022-12-31T08:17:13.379Z,0.30
2022-12-31T08:19:40.971Z,0.40
2022-12-31T08:22:25.725Z,0.63
2022-12-31T08:25:15.472Z,0.40
2022-12-31T08:28:11.041Z,0.52
2022-12-31T08:30:56.447Z,0.57
2022-12-31T08:33:34.254Z,0.63
2022-12-31T08:36:14.981Z,0.50
2022-12-31T08:38:53.233Z,0.65
2022-12-31T08:41:31.652Z,0.85
2022-12-31T08:44:20.198Z,0.93
2022-12-31T08:46:55.671Z,0.63
2022-12-31T08:49:26.704Z,0.68
2022-12-31T08:51:53.471Z,0.50
2022-12-31T08:54:20.208Z,0.77
2022-12-31T08:56:57.500Z,0.90
2022-12-31T08:59:30.499Z,1.27
2022-12-31T09:02:03.787Z,1.23
2022-12-31T09:04:53.858Z,0.80
2022-12-31T09:07:25.745Z,1.33
2022-12-31T09:10:11.090Z,0.98
2022-12-31T09:12:59.235Z,1.13
2022-12-31T09:15:52.479Z,1.05
2022-12-31T09:18:19.263Z,0.70
2022-12-31T09:20:46.627Z,0.60
2022-12-31T09:23:13.599Z,0.90
2022-12-31T09:25:55.736Z,1.40
2022-12-31T09:28:39.330Z,1.25
2022-12-31T09:31:14.752Z,1.17
2022-12-31T09:33:55.885Z,1.17
2022-12-31T09:36:30.362Z,1.10
2022-12-31T09:39:23.242Z,1.50
2022-12-31T09:42:11.605Z,1.20
2022-12-31T09:44:53.963Z,1.02
2022-12-31T09:47:48.507Z,0.70
2022-12-31T09:50:38.044Z,1.13
2022-12-31T09:53:41.100Z,1.60
2022-12-31T09:56:32.972Z,1.20
2022-12-31T09:59:05.382Z,1.35
2022-12-31T10:01:46.626Z,1.80
2022-12-31T10:04:39.780Z,1.20
2022-12-31T10:07:15.611Z,1.17
2022-12-31T10:09:49.918Z,1.30
2022-12-31T10:12:23.891Z,1.50
2022-12-31T10:15:09.328Z,1.30
2022-12-31T10:18:05.367Z,0.90
2022-12-31T10:21:19.726Z,0.63
2022-12-31T10:24:08.280Z,0.60
2022-12-31T10:27:07.182Z,0.70
2022-12-31T10:29:47.259Z,0.90
2022-12-31T10:32:31.666Z,0.80
2022-12-31T10:35:38.161Z,1.00
2022-12-31T10:38:53.225Z,0.90
2022-12-31T10:41:49.693Z,0.68
2022-12-31T10:44:52.036Z,0.60
2022-12-31T10:47:27.197Z,0.95
2022-12-31T10:50:15.417Z,1.17
2022-12-31T10:53:01.009Z,1.00
2022-12-31T10:55:54.235Z,0.90
2022-12-31T10:58:46.553Z,0.70
2022-12-31T11:01:17.797Z,0.50
2022-12-31T11:04:03.527Z,0.70
2022-12-31T11:06:51.541Z,1.10
2022-12-31T11:09:38.964Z,0.63
2022-12-31T11:12:21.903Z,0.85
2022-12-31T11:15:16.774Z,0.73
2022-12-31T11:17:57.024Z,0.90
2022-12-31T11:20:36.849Z,0.77
2022-12-31T11:23:26.527Z,1.05
2022-12-31T11:26:16.753Z,0.80
2022-12-31T11:29:04.691Z,0.95
2022-12-31T11:31:40.405Z,0.90
2022-12-31T11:34:37.653Z,1.00
2022-12-31T11:37:28.659Z,1.20
2022-12-31T11:40:08.005Z,0.98
2022-12-31T11:42:56.738Z,0.77
2022-12-31T11:45:43.220Z,0.70
2022-12-31T11:48:31.778Z,1.08
2022-12-31T11:51:38.930Z,0.90
2022-12-31T11:54:34.183Z,0.70
2022-12-31T11:57:38.858Z,0.90
2022-12-31T12:00:18.848Z,0.85
2022-12-31T12:03:02.053Z,0.65
2022-12-31T12:05:29.168Z,0.63
2022-12-31T12:07:56.780Z,0.77
2022-12-31T12:10:33.517Z,0.60
2022-12-31T12:13:14.090Z,0.50
2022-12-31T12:15:42.769Z,0.47
2022-12-31T12:18:18.575Z,0.50
2022-12-31T12:20:46.318Z,0.70
2022-12-31T12:23:32.919Z,0.52
2022-12-31T12:25:59.867Z,0.50
2022-12-31T12:28:29.296Z,0.60
2022-12-31T12:31:04.935Z,1.38
2022-12-31T12:36:10.260Z,0.90
2022-12-31T12:38:37.430Z,0.40
2022-12-31T12:41:06.714Z,0.50
2022-12-31T12:43:35.950Z,0.40
2022-12-31T12:46:17.792Z,0.80
2022-12-31T12:48:46.879Z,0.43
2022-12-31T12:51:20.345Z,0.40
2022-12-31T12:53:59.799Z,0.70
2022-12-31T12:56:49.799Z,0.60
2022-12-31T12:59:33.195Z,0.73
2022-12-31T13:02:34.585Z,0.63
2022-12-31T13:05:32.130Z,0.60
2022-12-31T13:08:38.639Z,0.73
2022-12-31T13:11:22.742Z,0.63
2022-12-31T13:13:51.900Z,0.65
2022-12-31T13:16:31.568Z,0.50
2022-12-31T13:19:12.811Z,0.40
2022-12-31T13:21:46.073Z,0.30
2022-12-31T13:24:24.030Z,0.25
2022-12-31T13:26:57.614Z,0.20
2022-12-31T13:29:28.251Z,0.20
2022-12-31T13:31:56.052Z,0.30
2022-12-31T13:34:27.642Z,0.40
2022-12-31T13:36:55.232Z,0.40
2022-12-31T13:39:29.731Z,0.55
2022-12-31T13:42:01.350Z,0.35
2022-12-31T13:44:38.759Z,0.35
2022-12-31T13:47:24.877Z,0.20
2022-12-31T13:50:15.338Z,0.20
2022-12-31T13:52:53.819Z,0.30
2022-12-31T13:55:24.181Z,0.52
2022-12-31T13:57:53.956Z,0.38
2022-12-31T14:00:24.133Z,0.40
2022-12-31T14:03:15.749Z,0.57
2022-12-31T14:06:05.285Z,0.98
2022-12-31T14:08:31.937Z,1.48
2022-12-31T14:11:08.225Z,2.45
2022-12-31T14:13:45.350Z,2.20
2022-12-31T14:16:22.906Z,2.00
2022-12-31T14:19:06.911Z,1.80
2022-12-31T14:21:40.039Z,2.10
2022-12-31T14:24:33.986Z,1.83
2022-12-31T14:27:05.372Z,1.75
2022-12-31T14:29:45.912Z,1.63
2022-12-31T14:32:59.549Z,1.50
2022-12-31T14:35:36.707Z,1.70
2022-12-31T14:38:16.303Z,1.30
2022-12-31T14:41:11.196Z,1.20
2022-12-31T14:43:44.154Z,1.00
2022-12-31T14:46:37.689Z,1.25
2022-12-31T14:49:21.405Z,1.67
2022-12-31T14:51:48.130Z,1.30
2022-12-31T14:54:29.612Z,1.35
2022-12-31T14:56:56.197Z,0.90
2022-12-31T14:59:31.489Z,0.93
2022-12-31T15:02:01.153Z,0.98
2022-12-31T15:04:33.347Z,0.90
2022-12-31T15:07:25.522Z,1.20
2022-12-31T15:10:17.304Z,0.90
2022-12-31T15:13:05.241Z,0.73
2022-12-31T15:15:36.452Z,0.80
2022-12-31T15:18:10.738Z,1.30
2022-12-31T15:20:59.432Z,0.93
2022-12-31T15:23:35.615Z,0.70
2022-12-31T15:26:03.326Z,0.95
2022-12-31T15:28:34.403Z,0.70
2022-12-31T15:31:18.204Z,0.90
2022-12-31T15:34:03.336Z,1.10
2022-12-31T15:36:39.006Z,0.70
2022-12-31T15:39:11.345Z,0.77
2022-12-31T15:42:10.288Z,0.93
2022-12-31T15:44:48.855Z,0.75
2022-12-31T15:47:20.568Z,0.85
2022-12-31T15:49:47.813Z,1.50
2022-12-31T15:52:32.319Z,1.50
2022-12-31T15:55:00.320Z,1.58
2022-12-31T15:57:39.733Z,1.00
2022-12-31T16:00:14.520Z,1.30
2022-12-31T16:02:43.074Z,1.20
2022-12-31T16:05:22.723Z,1.10
2022-12-31T16:07:55.503Z,1.10
2022-12-31T16:10:25.487Z,1.20
2022-12-31T16:12:53.940Z,0.82
2022-12-31T16:15:27.683Z,1.10
2022-12-31T16:17:59.884Z,0.88
2022-12-31T16:20:30.254Z,0.98
2022-12-31T16:22:58.309Z,1.50
2022-12-31T16:25:33.128Z,1.17
2022-12-31T16:28:02.204Z,1.17
2022-12-31T16:30:30.831Z,1.35
2022-12-31T16:33:01.885Z,1.15
2022-12-31T16:35:30.691Z,1.63
2022-12-31T16:38:17.486Z,1.05
2022-12-31T16:41:02.069Z,1.33
2022-12-31T16:43:40.269Z,1.40
2022-12-31T16:46:42.355Z,1.75
2022-12-31T16:49:20.224Z,1.60
2022-12-31T16:51:47.098Z,1.70
2022-12-31T16:54:20.970Z,1.17
2022-12-31T16:56:47.837Z,1.50
2022-12-31T16:59:41.499Z,1.67
2022-12-31T17:02:38.552Z,2.08
2022-12-31T17:05:18.724Z,1.40
2022-12-31T17:07:45.432Z,1.25
2022-12-31T17:10:20.453Z,1.88
2022-12-31T17:15:43.124Z,1.40
2022-12-31T17:18:20.694Z,2.20
2022-12-31T17:20:49.635Z,2.17
2022-12-31T17:23:28.752Z,2.22
2022-12-31T17:26:15.516Z,2.20
2022-12-31T17:28:46.213Z,2.17
2022-12-31T17:31:33.553Z,2.03
2022-12-31T17:34:12.308Z,2.03
2022-12-31T17:37:00.774Z,2.22
2022-12-31T17:39:40.756Z,1.92
2022-12-31T17:42:10.490Z,2.00
2022-12-31T17:44:38.789Z,2.05
2022-12-31T17:47:05.932Z,2.08
2022-12-31T17:49:33.244Z,1.85
2022-12-31T17:51:59.801Z,1.67
2022-12-31T17:54:26.346Z,1.88
2022-12-31T17:56:53.671Z,2.30
2022-12-31T17:59:25.411Z,1.80
2022-12-31T18:01:52.222Z,1.80
2022-12-31T18:04:20.682Z,1.98
2022-12-31T18:06:47.199Z,2.63
2022-12-31T18:09:15.801Z,1.92
2022-12-31T18:11:42.828Z,1.88
2022-12-31T18:14:13.360Z,1.88
2022-12-31T18:16:40.055Z,1.80
2022-12-31T18:19:23.508Z,1.70
2022-12-31T18:22:00.663Z,1.90
2022-12-31T18:24:27.284Z,2.30
2022-12-31T18:26:54.371Z,2.42
2022-12-31T18:29:21.869Z,3.00
2022-12-31T18:31:49.359Z,3.30
2022-12-31T18:34:18.223Z,3.90
2022-12-31T18:36:45.354Z,3.80
2022-12-31T18:39:11.968Z,3.55
2022-12-31T18:41:51.000Z,3.67
2022-12-31T18:44:17.640Z,3.10
2022-12-31T18:46:44.193Z,3.20
2022-12-31T18:49:10.783Z,2.88
2022-12-31T18:51:37.384Z,3.10
2022-12-31T18:54:04.693Z,2.92
2022-12-31T18:56:31.405Z,3.03
2022-12-31T18:58:59.645Z,2.80
2022-12-31T19:01:34.829Z,2.40
2022-12-31T19:04:28.133Z,2.15
2022-12-31T19:06:55.235Z,2.55
2022-12-31T19:12:11.882Z,2.08
2022-12-31T19:14:38.407Z,2.13
2022-12-31T19:19:30.452Z,2.00
2022-12-31T19:21:57.063Z,2.33
2022-12-31T19:24:27.745Z,1.95
2022-12-31T19:26:54.868Z,2.10
2022-12-31T19:29:26.409Z,2.40
2022-12-31T19:31:53.355Z,1.92
2022-12-31T19:34:20.294Z,1.90
2022-12-31T19:36:46.881Z,2.05
2022-12-31T19:39:17.151Z,1.90
2022-12-31T19:41:44.878Z,1.77
2022-12-31T19:44:17.458Z,1.92
2022-12-31T19:46:44.587Z,1.52
2022-12-31T19:49:12.471Z,2.10
2022-12-31T19:51:39.680Z,2.00
2022-12-31T19:54:06.831Z,1.73
2022-12-31T19:56:33.719Z,1.80
2022-12-31T19:59:05.622Z,1.75
2022-12-31T20:01:32.307Z,1.98
2022-12-31T20:03:59.068Z,1.70
2022-12-31T20:06:26.534Z,1.42
2022-12-31T20:08:53.051Z,1.55
2022-12-31T20:11:21.620Z,2.30
2022-12-31T20:13:49.368Z,2.28
2022-12-31T20:16:18.204Z,2.60
2022-12-31T20:18:46.286Z,2.92
2022-12-31T20:21:17.798Z,2.88
2022-12-31T20:23:45.018Z,3.60
2022-12-31T20:26:11.927Z,3.33
2022-12-31T20:28:38.783Z,3.45
2022-12-31T20:31:07.517Z,3.38
2022-12-31T20:33:34.872Z,3.25
2022-12-31T20:36:03.235Z,2.88
2022-12-31T20:38:29.817Z,2.85
2022-12-31T20:41:02.813Z,2.30
2022-12-31T20:43:33.147Z,2.60
2022-12-31T20:46:00.084Z,2.25
2022-12-31T20:48:26.729Z,2.17
2022-12-31T20:50:55.283Z,2.17
2022-12-31T20:53:21.855Z,2.50
2022-12-31T20:55:50.308Z,1.83
2022-12-31T20:58:17.320Z,2.10
2022-12-31T21:00:51.134Z,2.00
2022-12-31T21:03:53.572Z,1.90
2022-12-31T21:06:05.362Z,1.83
2022-12-31T21:08:34.974Z,1.90
2022-12-31T21:11:02.520Z,1.80
2022-12-31T21:13:29.520Z,1.95
2022-12-31T21:15:56.093Z,1.77
2022-12-31T21:18:22.818Z,1.98
2022-12-31T21:20:51.169Z,1.60
2022-12-31T21:23:18.852Z,2.08
2022-12-31T21:25:45.892Z,2.00
2022-12-31T21:28:12.689Z,1.80
2022-12-31T21:30:40.672Z,1.42
2022-12-31T21:33:09.200Z,1.80
2022-12-31T21:35:48.715Z,1.70
2022-12-31T21:38:19.837Z,2.30
2022-12-31T21:40:46.515Z,2.05
2022-12-31T21:43:14.857Z,1.75
2022-12-31T21:45:41.475Z,1.70
2022-12-31T21:48:22.085Z,1.92
2022-12-31T21:50:50.975Z,1.98
2022-12-31T21:53:24.549Z,2.20
2022-12-31T21:56:08.251Z,1.90
2022-12-31T21:58:43.004Z,1.80
2022-12-31T22:01:38.746Z,2.00
2022-12-31T22:04:05.884Z,2.13
2022-12-31T22:06:36.198Z,1.95
2022-12-31T22:09:02.817Z,1.90
2022-12-31T22:11:29.510Z,1.70
2022-12-31T22:13:56.192Z,2.40
2022-12-31T22:16:23.125Z,2.20
2022-12-31T22:18:49.983Z,2.42
2022-12-31T22:21:20.407Z,2.70
2022-12-31T22:23:49.535Z,2.83
2022-12-31T22:26:18.289Z,2.83
2022-12-31T22:28:45.836Z,2.90
2022-12-31T22:31:17.938Z,2.38
2022-12-31T22:33:45.378Z,2.50
2022-12-31T22:36:14.672Z,2.55
2022-12-31T22:38:41.692Z,2.70
2022-12-31T22:41:11.511Z,3.50
2022-12-31T22:43:41.003Z,3.67
2022-12-31T22:46:13.280Z,4.57
2022-12-31T22:48:40.340Z,3.90
2022-12-31T22:51:07.557Z,4.63
2022-12-31T22:53:34.353Z,4.60
2022-12-31T22:56:00.876Z,4.50
2022-12-31T22:58:27.580Z,4.88
2022-12-31T23:00:54.099Z,3.72
2022-12-31T23:03:20.863Z,3.83
2022-12-31T23:05:51.630Z,3.78
2022-12-31T23:08:23.260Z,3.38
2022-12-31T23:11:01.109Z,4.05
2022-12-31T23:13:50.974Z,4.47
2022-12-31T23:16:36.977Z,4.53
2022-12-31T23:19:22.191Z,4.40
2022-12-31T23:22:07.435Z,6.00
2022-12-31T23:24:35.516Z,7.72
2022-12-31T23:27:02.069Z,11.85
2022-12-31T23:29:28.643Z,13.75
2022-12-31T23:31:55.242Z,14.20
2022-12-31T23:34:22.337Z,16.02
2022-12-31T23:36:48.933Z,17.00
2022-12-31T23:39:15.614Z,16.45
2022-12-31T23:41:42.601Z,16.05
2022-12-31T23:44:11.784Z,14.48
2022-12-31T23:46:38.950Z,14.70
2022-12-31T23:49:05.642Z,14.02
2022-12-31T23:51:32.547Z,14.18
2022-12-31T23:53:59.240Z,13.60
2022-12-31T23:56:25.767Z,13.10
2022-12-31T23:58:56.377Z,13.00
